메인 페이지
METAR-TAF:

METAR-TAF

공항 :

Cruzeiro do Sul, 아크리, 브라질

위도: 07-38S, 경도: 072-40W, 고도: 170m

현재 날씨관측

예보는 45분 전, 00:00시(UTC)에 발표되었습니다.
무풍
온도 25°C
습도 100%
기압 1012 hPa
시정 10km 이상
고도 600ft 상공 구름 보통
고도 9000ft 상공 구름 많음

METAR: SBCZ 260000Z 00000KT 9999 SCT006 BKN090 25/25 Q1012

시각: 19:45 (00:45 UTC)

예보

예보는 2 시간 45분 전, 22:00시(UTC)에 발표되었습니다.
예보 대상 시간: 26일 00시부터 26일 24시까지 (UTC)
동남동5kt
시정 10km 이상
고도 1000ft 상공 구름 많음
확률 30%
26일 12시부터 26일 14시까지 (UTC)
동북동5kt
시정: 4000m
고도 400ft 상공 구름 많음
박무
전환 중
26일 15시부터 26일 17시까지 (UTC)
5kt
고도 2000ft 상공 구름 많음
일시적
26일 19시부터 26일 23시까지 (UTC)
남남동5kt
고도 2500ft 상공 구름 많음
고도 3000ft 상공 구름 조금, 적란운.
뇌우

TAF: SBCZ 252200Z 2600/2624 12005KT 9999 BKN010 TN23/2611Z TX27/2618Z PROB30 2612/2614 06005KT 4000 BR BKN004 BECMG 2615/2617 35005KT BKN020 TEMPO 2619/2623 16005KT TS BKN025 FEW030CB RMK PGY

4,000개 이상의 공항 관측 자료 및 예보 (METAR 및 TAF 보고).

지도상에서 검색 가능한 기상관측소가 노란 점과 빨간 점으로 표시되어 있습니다.

기상관측소 명을 보려면 표시 위로 마우스를 이동하세요.

날씨 관측과 예보를 보려면 클릭하세요.

지도 변경 : 확대하려면 엑스 표시가 있는 녹색 버튼, 축소하려면 빼기 표시가 있는 녹색 버튼, 다음 페이지의 지도를 보려면 녹색 화살표를 클릭하세요.


METAR-TAF: